createdAt,value
2018-12-04T00:02:05.993Z,2.33
2018-12-04T00:04:39.491Z,2.50
2018-12-04T00:07:13.489Z,2.25
2018-12-04T00:09:46.819Z,2.40
2018-12-04T00:12:20.667Z,2.33
2018-12-04T00:14:54.099Z,2.50
2018-12-04T00:17:27.662Z,2.60
2018-12-04T00:20:01.343Z,2.30
2018-12-04T00:25:12.414Z,2.37
2018-12-04T00:27:45.263Z,2.40
2018-12-04T00:32:04.532Z,2.50
2018-12-04T00:34:38.236Z,2.45
2018-12-04T00:37:12.774Z,2.58
2018-12-04T00:48:45.377Z,2.65
2018-12-04T00:53:59.780Z,2.72
2018-12-04T00:56:33.284Z,2.60
2018-12-04T00:59:07.808Z,2.50
2018-12-04T01:01:46.911Z,2.42
2018-12-04T01:04:21.883Z,2.70
2018-12-04T01:06:56.241Z,2.80
2018-12-04T01:09:30.371Z,2.87
2018-12-04T01:12:06.332Z,2.93
2018-12-04T01:14:46.126Z,2.72
2018-12-04T01:17:20.935Z,2.70
2018-12-04T01:22:33.791Z,2.80
2018-12-04T01:25:08.490Z,3.20
2018-12-04T01:30:59.323Z,3.07
2018-12-04T01:33:44.333Z,3.08
2018-12-04T01:38:57.023Z,3.27
2018-12-04T01:41:31.114Z,3.60
2018-12-04T01:46:57.230Z,3.10
2018-12-04T01:49:33.988Z,3.17
2018-12-04T01:54:49.287Z,3.02
2018-12-04T02:02:55.625Z,4.37
2018-12-04T02:07:57.030Z,3.50
2018-12-04T02:10:34.849Z,3.25
2018-12-04T02:15:53.192Z,3.53
2018-12-04T02:21:07.274Z,3.17
2018-12-04T02:23:44.374Z,3.35
2018-12-04T02:38:13.872Z,3.42
2018-12-04T02:42:16.279Z,3.63
2018-12-04T02:50:23.413Z,3.93
2018-12-04T02:55:15.822Z,3.58
2018-12-04T02:57:54.060Z,4.10
2018-12-04T03:00:32.215Z,4.08
2018-12-04T03:03:06.046Z,3.90
2018-12-04T03:08:31.482Z,3.75
2018-12-04T03:13:45.831Z,4.17
2018-12-04T03:19:01.221Z,4.15
2018-12-04T03:21:44.250Z,3.95
2018-12-04T03:26:05.846Z,4.42
2018-12-04T03:28:44.364Z,4.33
2018-12-04T03:34:04.444Z,4.20
2018-12-04T03:42:07.580Z,4.00
2018-12-04T03:44:42.579Z,4.28
2018-12-04T03:47:18.220Z,3.87
2018-12-04T03:52:31.453Z,3.92
2018-12-04T03:56:29.311Z,3.72
2018-12-04T04:09:40.937Z,4.00
2018-12-04T04:15:05.359Z,4.30
2018-12-04T04:17:39.127Z,4.00
2018-12-04T04:20:12.849Z,3.33
2018-12-04T04:22:46.598Z,3.50
2018-12-04T04:25:20.657Z,3.80
2018-12-04T04:27:54.434Z,3.87
2018-12-04T04:30:28.057Z,4.00
2018-12-04T04:33:01.416Z,3.67
2018-12-04T04:35:34.865Z,4.37
2018-12-04T04:38:10.777Z,3.87
2018-12-04T04:40:44.629Z,3.80
2018-12-04T04:43:18.859Z,3.65
2018-12-04T04:45:52.440Z,4.13
2018-12-04T04:48:25.864Z,4.15
2018-12-04T04:50:59.769Z,3.80
2018-12-04T04:53:33.324Z,3.87
2018-12-04T04:56:41.750Z,3.70
2018-12-04T04:59:15.280Z,3.70
2018-12-04T05:06:12.587Z,3.98
2018-12-04T05:08:46.352Z,3.30
2018-12-04T05:11:20.339Z,3.87
2018-12-04T05:13:53.968Z,3.87
2018-12-04T05:16:27.431Z,3.52
2018-12-04T05:19:00.767Z,3.90
2018-12-04T05:21:33.772Z,4.20
2018-12-04T05:24:07.226Z,3.67
2018-12-04T05:28:43.630Z,3.40
2018-12-04T05:34:04.568Z,4.17
2018-12-04T05:36:37.910Z,3.93
2018-12-04T05:39:11.964Z,3.40
2018-12-04T05:41:46.170Z,3.58
2018-12-04T05:44:19.419Z,4.00
2018-12-04T05:46:53.355Z,4.47
2018-12-04T05:49:27.356Z,4.33
2018-12-04T05:52:00.787Z,3.85
2018-12-04T05:54:34.599Z,4.05
2018-12-04T06:00:14.779Z,4.10
2018-12-04T06:02:48.309Z,4.40
2018-12-04T06:05:21.414Z,4.40
2018-12-04T06:07:54.819Z,4.05
2018-12-04T06:10:28.289Z,4.10
2018-12-04T06:13:01.627Z,3.83
2018-12-04T06:15:35.359Z,3.83
2018-12-04T06:18:09.052Z,3.55
2018-12-04T06:20:42.299Z,3.43
2018-12-04T06:23:15.884Z,3.73
2018-12-04T06:25:49.790Z,3.40
2018-12-04T06:28:23.779Z,3.30
2018-12-04T06:30:57.403Z,3.77
2018-12-04T06:33:31.314Z,3.20
2018-12-04T06:36:05.376Z,3.37
2018-12-04T06:38:39.342Z,3.50
2018-12-04T06:41:12.893Z,3.33
2018-12-04T06:43:46.696Z,3.30
2018-12-04T06:46:20.382Z,2.93
2018-12-04T06:48:53.797Z,3.20
2018-12-04T06:51:27.630Z,3.47
2018-12-04T06:54:01.629Z,3.17
2018-12-04T06:56:35.382Z,3.40
2018-12-04T06:59:09.266Z,3.30
2018-12-04T07:01:42.963Z,3.17
2018-12-04T07:04:16.630Z,3.37
2018-12-04T07:06:50.443Z,3.42
2018-12-04T07:09:24.260Z,3.27
2018-12-04T07:12:02.411Z,3.30
2018-12-04T07:14:34.597Z,3.70
2018-12-04T07:17:08.378Z,3.20
2018-12-04T07:19:42.810Z,2.90
2018-12-04T07:22:16.954Z,2.98
2018-12-04T07:24:50.827Z,3.20
2018-12-04T07:27:24.908Z,3.20
2018-12-04T07:29:58.920Z,3.00
2018-12-04T07:32:32.635Z,2.93
2018-12-04T07:35:06.285Z,3.15
2018-12-04T07:37:40.257Z,3.23
2018-12-04T07:40:13.631Z,3.37
2018-12-04T07:42:47.459Z,3.15
2018-12-04T07:45:21.457Z,3.10
2018-12-04T07:47:54.658Z,3.20
2018-12-04T07:50:28.451Z,2.90
2018-12-04T07:53:03.124Z,3.20
2018-12-04T07:55:36.647Z,3.10
2018-12-04T07:58:10.809Z,3.40
2018-12-04T08:00:44.412Z,2.83
2018-12-04T08:03:18.031Z,2.97
2018-12-04T08:05:51.779Z,2.60
2018-12-04T08:08:25.438Z,2.70
2018-12-04T08:13:31.593Z,2.17
2018-12-04T08:16:05.520Z,2.17
2018-12-04T08:18:39.532Z,2.20
2018-12-04T08:21:13.642Z,2.30
2018-12-04T08:23:47.401Z,2.50
2018-12-04T08:26:21.354Z,2.40
2018-12-04T08:28:54.671Z,2.20
2018-12-04T08:31:28.548Z,2.33
2018-12-04T08:34:02.649Z,2.10
2018-12-04T08:36:36.500Z,2.30
2018-12-04T08:39:13.210Z,2.30
2018-12-04T08:41:47.390Z,2.20
2018-12-04T08:44:20.926Z,2.03
2018-12-04T08:46:54.653Z,2.40
2018-12-04T08:49:28.420Z,2.40
2018-12-04T08:52:02.455Z,2.12
2018-12-04T08:54:36.352Z,2.20
2018-12-04T08:57:09.690Z,2.07
2018-12-04T08:59:43.695Z,2.30
2018-12-04T09:02:17.424Z,2.05
2018-12-04T09:04:51.414Z,2.30
2018-12-04T09:07:25.305Z,1.98
2018-12-04T09:09:59.032Z,2.17
2018-12-04T09:12:32.537Z,2.00
2018-12-04T09:15:06.844Z,2.22
2018-12-04T09:17:40.489Z,1.93
2018-12-04T09:20:14.446Z,1.90
2018-12-04T09:22:48.473Z,2.20
2018-12-04T09:25:22.570Z,1.87
2018-12-04T09:27:56.413Z,1.90
2018-12-04T09:30:29.941Z,1.90
2018-12-04T09:33:03.420Z,1.80
2018-12-04T09:35:37.454Z,1.90
2018-12-04T09:40:42.953Z,1.95
2018-12-04T09:43:16.706Z,2.12
2018-12-04T09:45:50.736Z,2.00
2018-12-04T09:48:24.676Z,1.70
2018-12-04T09:50:58.433Z,1.70
2018-12-04T09:53:32.398Z,1.80
2018-12-04T09:56:05.699Z,1.70
2018-12-04T09:58:39.462Z,1.90
2018-12-04T10:01:13.434Z,2.00
2018-12-04T10:04:59.733Z,2.02
2018-12-04T10:07:33.522Z,1.70
2018-12-04T10:10:07.688Z,1.70
2018-12-04T10:12:41.588Z,1.70
2018-12-04T10:15:15.449Z,1.92
2018-12-04T10:17:48.845Z,1.70
2018-12-04T10:20:22.599Z,1.80
2018-12-04T10:22:56.734Z,2.02
2018-12-04T10:25:30.501Z,1.70
2018-12-04T10:28:04.440Z,1.90
2018-12-04T10:30:38.424Z,1.45
2018-12-04T10:33:11.678Z,1.60
2018-12-04T10:35:45.438Z,1.80
2018-12-04T10:38:19.322Z,1.60
2018-12-04T10:40:52.971Z,1.67
2018-12-04T10:43:26.758Z,2.05
2018-12-04T10:46:00.696Z,1.77
2018-12-04T10:48:34.657Z,1.50
2018-12-04T10:51:08.704Z,1.80
2018-12-04T10:53:42.564Z,2.00
2018-12-04T10:56:15.974Z,1.90
2018-12-04T10:58:49.737Z,1.83
2018-12-04T11:01:27.196Z,1.60
2018-12-04T11:04:00.864Z,1.57
2018-12-04T11:06:34.691Z,1.63
2018-12-04T11:09:11.054Z,1.50
2018-12-04T11:11:44.727Z,1.62
2018-12-04T11:14:18.697Z,1.70
2018-12-04T11:16:53.041Z,1.80
2018-12-04T11:19:26.528Z,1.50
2018-12-04T11:22:00.358Z,1.70
2018-12-04T11:24:33.885Z,1.70
2018-12-04T11:27:07.486Z,1.70
2018-12-04T11:29:40.986Z,1.80
2018-12-04T11:32:14.783Z,1.63
2018-12-04T11:34:48.527Z,1.43
2018-12-04T11:37:22.701Z,1.80
2018-12-04T11:39:56.741Z,1.83
2018-12-04T11:42:30.685Z,1.62
2018-12-04T11:45:04.345Z,1.67
2018-12-04T11:47:37.993Z,1.30
2018-12-04T11:50:11.733Z,1.80
2018-12-04T11:52:45.543Z,1.50
2018-12-04T11:55:19.084Z,1.67
2018-12-04T11:57:52.777Z,1.55
2018-12-04T12:00:30.805Z,1.70
2018-12-04T12:03:04.712Z,1.60
2018-12-04T12:05:38.534Z,1.50
2018-12-04T12:08:11.760Z,1.70
2018-12-04T12:10:45.593Z,1.40
2018-12-04T12:13:19.489Z,1.60
2018-12-04T12:15:53.461Z,1.60
2018-12-04T12:18:27.476Z,1.50
2018-12-04T12:21:01.489Z,1.77
2018-12-04T12:23:35.055Z,1.70
2018-12-04T12:26:08.729Z,1.73
2018-12-04T12:28:42.465Z,1.60
2018-12-04T12:31:15.740Z,1.85
2018-12-04T12:33:49.469Z,1.72
2018-12-04T12:36:23.796Z,1.60
2018-12-04T12:38:57.587Z,1.80
2018-12-04T12:41:31.041Z,1.90
2018-12-04T12:44:04.726Z,1.87
2018-12-04T12:46:38.502Z,1.70
2018-12-04T12:49:12.330Z,1.70
2018-12-04T12:51:45.728Z,1.67
2018-12-04T12:54:19.499Z,1.70
2018-12-04T12:56:53.231Z,1.50
2018-12-04T12:59:26.757Z,1.53
2018-12-04T13:02:00.569Z,1.60
2018-12-04T13:04:33.935Z,1.50
2018-12-04T13:07:07.541Z,1.60
2018-12-04T13:09:41.527Z,1.70
2018-12-04T13:12:15.385Z,1.82
2018-12-04T13:14:49.497Z,1.70
2018-12-04T13:17:22.912Z,1.50
2018-12-04T13:19:56.924Z,1.60
2018-12-04T13:22:30.739Z,1.60
2018-12-04T13:25:04.583Z,1.67
2018-12-04T13:27:38.555Z,1.55
2018-12-04T13:30:12.914Z,1.60
2018-12-04T13:32:46.623Z,1.60
2018-12-04T13:35:20.515Z,1.75
2018-12-04T13:37:53.934Z,1.70
2018-12-04T13:40:27.734Z,1.60
2018-12-04T13:43:01.543Z,1.70
2018-12-04T13:45:35.038Z,1.70
2018-12-04T13:48:08.526Z,1.60
2018-12-04T13:50:41.769Z,1.60
2018-12-04T13:53:15.747Z,1.73
2018-12-04T13:55:49.922Z,1.50
2018-12-04T13:58:23.508Z,1.53
2018-12-04T14:00:57.102Z,1.60
2018-12-04T14:06:16.804Z,1.50
2018-12-04T14:08:50.922Z,1.60
2018-12-04T14:11:24.533Z,1.90
2018-12-04T14:13:58.498Z,1.70
2018-12-04T14:16:32.467Z,1.40
2018-12-04T14:19:05.792Z,1.70
2018-12-04T14:21:39.536Z,1.67
2018-12-04T14:24:13.054Z,1.77
2018-12-04T14:26:46.476Z,1.60
2018-12-04T14:29:19.935Z,1.80
2018-12-04T14:31:53.581Z,1.60
2018-12-04T14:34:26.790Z,1.67
2018-12-04T14:37:00.391Z,1.67
2018-12-04T14:39:34.281Z,1.67
2018-12-04T14:42:07.947Z,1.90
2018-12-04T14:44:42.421Z,1.70
2018-12-04T14:47:15.780Z,1.40
2018-12-04T14:49:49.532Z,1.70
2018-12-04T14:52:23.306Z,1.90
2018-12-04T14:54:56.964Z,1.40
2018-12-04T14:57:30.655Z,1.70
2018-12-04T15:00:04.174Z,1.70
2018-12-04T15:02:38.091Z,1.50
2018-12-04T15:05:12.791Z,1.60
2018-12-04T15:07:46.394Z,1.60
2018-12-04T15:10:19.974Z,1.50
2018-12-04T15:12:53.557Z,2.10
2018-12-04T15:15:27.587Z,2.10
2018-12-04T15:18:01.499Z,1.70
2018-12-04T15:20:35.123Z,1.97
2018-12-04T15:23:08.549Z,1.80
2018-12-04T15:25:42.956Z,1.70
2018-12-04T15:28:16.664Z,1.60
2018-12-04T15:30:50.216Z,1.70
2018-12-04T15:33:24.075Z,1.63
2018-12-04T15:35:57.774Z,1.60
2018-12-04T15:38:31.182Z,1.43
2018-12-04T15:41:05.081Z,1.70
2018-12-04T15:43:38.974Z,1.70
2018-12-04T15:46:12.795Z,1.70
2018-12-04T15:48:46.699Z,1.40
2018-12-04T15:51:20.147Z,1.70
2018-12-04T15:53:54.007Z,1.90
2018-12-04T15:56:27.779Z,1.85
2018-12-04T15:59:01.546Z,1.60
2018-12-04T16:08:30.800Z,2.07
2018-12-04T16:11:04.517Z,2.43
2018-12-04T16:13:38.171Z,2.47
2018-12-04T16:16:11.797Z,3.23
2018-12-04T16:18:45.558Z,3.20
2018-12-04T16:21:19.549Z,3.35
2018-12-04T16:23:53.185Z,3.60
2018-12-04T16:26:26.799Z,3.75
2018-12-04T16:29:00.893Z,3.55
2018-12-04T16:31:34.690Z,3.87
2018-12-04T16:34:08.605Z,4.03
2018-12-04T16:36:41.974Z,3.40
2018-12-04T16:39:15.574Z,3.55
2018-12-04T16:41:48.808Z,3.90
2018-12-04T16:44:22.711Z,3.90
2018-12-04T16:46:56.634Z,3.47
2018-12-04T16:49:30.466Z,4.30
2018-12-04T16:52:04.546Z,4.03
2018-12-04T16:54:38.566Z,4.10
2018-12-04T16:57:12.533Z,3.70
2018-12-04T16:59:46.298Z,4.20
2018-12-04T17:02:19.880Z,3.92
2018-12-04T17:04:53.571Z,4.35
2018-12-04T17:07:26.831Z,4.00
2018-12-04T17:10:00.574Z,4.10
2018-12-04T17:12:33.998Z,4.00
2018-12-04T17:15:08.583Z,4.70
2018-12-04T17:17:42.195Z,4.15
2018-12-04T17:20:16.148Z,4.33
2018-12-04T17:22:49.823Z,4.00
2018-12-04T17:25:23.580Z,3.90
2018-12-04T17:27:57.257Z,4.07
2018-12-04T17:30:31.991Z,4.15
2018-12-04T17:33:05.823Z,4.17
2018-12-04T17:35:39.282Z,4.00
2018-12-04T17:38:13.003Z,4.45
2018-12-04T17:40:46.826Z,3.93
2018-12-04T17:43:20.620Z,4.50
2018-12-04T17:45:54.510Z,4.53
2018-12-04T17:48:28.413Z,4.47
2018-12-04T17:51:02.176Z,4.05
2018-12-04T17:53:36.738Z,4.20
2018-12-04T17:56:10.599Z,4.00
2018-12-04T17:58:44.579Z,4.47
2018-12-04T18:01:18.169Z,4.60
2018-12-04T18:03:51.642Z,4.67
2018-12-04T18:06:25.158Z,4.35
2018-12-04T18:08:59.116Z,4.83
2018-12-04T18:11:32.676Z,4.40
2018-12-04T18:14:06.461Z,4.33
2018-12-04T18:16:39.982Z,4.70
2018-12-04T18:19:13.730Z,4.65
2018-12-04T18:24:43.018Z,5.05
2018-12-04T18:27:16.887Z,4.27
2018-12-04T18:29:50.603Z,4.60
2018-12-04T18:32:24.528Z,4.60
2018-12-04T18:34:58.179Z,4.30
2018-12-04T18:37:32.675Z,4.47
2018-12-04T18:40:06.502Z,4.40
2018-12-04T18:42:40.176Z,4.50
2018-12-04T18:45:13.847Z,4.40
2018-12-04T18:47:48.017Z,4.80
2018-12-04T18:50:21.695Z,4.30
2018-12-04T18:52:55.634Z,4.40
2018-12-04T18:55:29.191Z,4.50
2018-12-04T18:58:02.609Z,4.27
2018-12-04T19:00:36.861Z,4.35
2018-12-04T19:03:10.591Z,4.13
2018-12-04T19:05:44.025Z,5.00
2018-12-04T19:08:24.333Z,5.20
2018-12-04T19:13:25.026Z,4.90
2018-12-04T19:15:58.619Z,4.50
2018-12-04T19:18:32.030Z,4.92
2018-12-04T19:21:05.603Z,5.20
2018-12-04T19:23:39.604Z,4.45
2018-12-04T19:26:13.632Z,5.05
2018-12-04T19:28:47.613Z,5.20
2018-12-04T19:31:21.298Z,5.40
2018-12-04T19:33:54.831Z,5.10
2018-12-04T19:36:28.763Z,5.87
2018-12-04T19:39:02.619Z,4.83
2018-12-04T19:41:36.220Z,5.15
2018-12-04T19:44:09.863Z,4.25
2018-12-04T19:46:44.038Z,4.95
2018-12-04T19:49:18.037Z,4.90
2018-12-04T19:51:51.575Z,4.63
2018-12-04T19:54:25.203Z,4.30
2018-12-04T19:56:59.144Z,4.47
2018-12-04T19:59:32.615Z,4.37
2018-12-04T20:02:06.774Z,4.50
2018-12-04T20:04:40.877Z,4.62
2018-12-04T20:07:14.672Z,4.73
2018-12-04T20:09:48.499Z,4.30
2018-12-04T20:12:22.215Z,4.55
2018-12-04T20:14:55.906Z,4.70
2018-12-04T20:17:29.699Z,5.10
2018-12-04T20:20:03.579Z,4.60
2018-12-04T20:22:37.156Z,4.83
2018-12-04T20:25:11.620Z,4.80
2018-12-04T20:27:45.644Z,4.40
2018-12-04T20:30:19.667Z,4.80
2018-12-04T20:34:05.062Z,4.73
2018-12-04T20:36:39.083Z,4.60
2018-12-04T20:39:12.879Z,4.63
2018-12-04T20:41:46.787Z,4.20
2018-12-04T20:44:20.632Z,4.60
2018-12-04T20:46:54.711Z,4.40
2018-12-04T20:49:28.762Z,4.50
2018-12-04T20:52:02.780Z,4.30
2018-12-04T20:54:36.163Z,4.77
2018-12-04T20:57:10.015Z,4.70
2018-12-04T20:59:43.691Z,4.30
2018-12-04T21:02:17.650Z,4.70
2018-12-04T21:04:51.647Z,4.12
2018-12-04T21:07:25.646Z,4.27
2018-12-04T21:12:31.222Z,5.10
2018-12-04T21:15:05.055Z,4.70
2018-12-04T21:17:38.744Z,4.63
2018-12-04T21:20:12.170Z,5.10
2018-12-04T21:22:46.083Z,4.92
2018-12-04T21:25:20.074Z,4.40
2018-12-04T21:27:58.223Z,5.10
2018-12-04T21:30:36.650Z,4.70
2018-12-04T21:34:17.202Z,5.25
2018-12-04T21:36:54.926Z,4.83
2018-12-04T21:39:33.075Z,4.97
2018-12-04T21:42:11.654Z,4.85
2018-12-04T21:44:49.655Z,4.87
2018-12-04T21:47:27.956Z,4.72
2018-12-04T21:50:01.954Z,4.43
2018-12-04T21:52:36.072Z,4.70
2018-12-04T21:55:10.060Z,4.37
2018-12-04T21:57:43.651Z,4.70
2018-12-04T22:00:17.181Z,5.20
2018-12-04T22:02:50.639Z,4.43
2018-12-04T22:05:24.078Z,4.77
2018-12-04T22:07:57.646Z,4.67
2018-12-04T22:10:30.909Z,4.40
2018-12-04T22:13:04.274Z,5.15
2018-12-04T22:15:37.754Z,5.50
2018-12-04T22:20:43.086Z,5.13
2018-12-04T22:23:16.907Z,5.60
2018-12-04T22:25:50.386Z,5.20
2018-12-04T22:28:24.198Z,5.50
2018-12-04T22:30:58.078Z,5.07
2018-12-04T22:33:31.695Z,4.90
2018-12-04T22:36:05.682Z,4.50
2018-12-04T22:38:39.550Z,4.90
2018-12-04T22:41:13.411Z,5.30
2018-12-04T22:43:47.664Z,5.10
2018-12-04T22:46:21.238Z,4.75
2018-12-04T22:48:54.923Z,4.90
2018-12-04T22:51:28.827Z,5.07
2018-12-04T22:54:02.692Z,5.03
2018-12-04T22:56:36.579Z,4.97
2018-12-04T22:59:10.255Z,5.00
2018-12-04T23:01:44.707Z,5.47
2018-12-04T23:04:18.553Z,4.95
2018-12-04T23:06:52.739Z,5.10
2018-12-04T23:09:26.119Z,5.07
2018-12-04T23:11:59.733Z,4.47
2018-12-04T23:14:34.426Z,4.80
2018-12-04T23:17:08.267Z,5.53
2018-12-04T23:19:42.101Z,4.83
2018-12-04T23:22:16.047Z,4.70
2018-12-04T23:24:50.208Z,5.47
2018-12-04T23:27:23.925Z,5.10
2018-12-04T23:29:57.707Z,4.90
2018-12-04T23:32:31.643Z,4.95
2018-12-04T23:35:05.494Z,5.77
2018-12-04T23:37:39.883Z,5.03
2018-12-04T23:40:13.610Z,5.80
2018-12-04T23:42:47.247Z,5.40
2018-12-04T23:45:21.008Z,5.27
2018-12-04T23:47:55.107Z,5.15
2018-12-04T23:50:28.854Z,4.83
2018-12-04T23:53:02.702Z,5.50
2018-12-04T23:55:36.586Z,4.40
2018-12-04T23:58:10.559Z,5.10
